createdAt,value
2019-02-17T00:00:42.144Z,24.80
2019-02-17T00:03:12.690Z,30.23
2019-02-17T00:05:43.042Z,27.25
2019-02-17T00:08:13.418Z,25.70
2019-02-17T00:10:43.749Z,30.50
2019-02-17T00:13:14.173Z,29.23
2019-02-17T00:15:44.816Z,23.50
2019-02-17T00:18:15.680Z,23.27
2019-02-17T00:20:46.106Z,26.85
2019-02-17T00:23:16.471Z,20.30
2019-02-17T00:25:46.883Z,26.90
2019-02-17T00:28:17.531Z,17.95
2019-02-17T00:30:48.186Z,23.38
2019-02-17T00:33:18.807Z,23.80
2019-02-17T00:35:49.429Z,19.67
2019-02-17T00:38:19.807Z,24.85
2019-02-17T00:40:50.236Z,25.10
2019-02-17T00:43:20.899Z,19.65
2019-02-17T00:45:51.521Z,18.35
2019-02-17T00:48:21.898Z,18.07
2019-02-17T00:50:52.305Z,20.65
2019-02-17T00:53:22.952Z,23.22
2019-02-17T00:55:53.337Z,23.92
2019-02-17T00:58:23.747Z,16.20
2019-02-17T01:00:56.067Z,19.00
2019-02-17T01:03:26.440Z,19.98
2019-02-17T01:05:57.084Z,23.75
2019-02-17T01:08:27.414Z,20.43
2019-02-17T01:10:58.392Z,22.95
2019-02-17T01:13:28.740Z,21.52
2019-02-17T01:15:59.090Z,18.73
2019-02-17T01:18:29.458Z,22.22
2019-02-17T01:20:59.787Z,25.48
2019-02-17T01:23:30.410Z,25.40
2019-02-17T01:26:00.790Z,21.48
2019-02-17T01:28:31.408Z,18.07
2019-02-17T01:31:01.879Z,22.55
2019-02-17T01:33:32.249Z,18.07
2019-02-17T01:36:02.847Z,21.02
2019-02-17T01:38:33.228Z,20.32
2019-02-17T01:41:03.840Z,18.95
2019-02-17T01:43:34.837Z,18.17
2019-02-17T01:46:05.522Z,19.02
2019-02-17T01:48:35.873Z,19.62
2019-02-17T01:51:06.197Z,19.85
2019-02-17T01:53:36.552Z,15.00
2019-02-17T01:56:07.149Z,20.90
2019-02-17T01:58:37.516Z,19.15
2019-02-17T02:01:08.166Z,20.23
2019-02-17T02:03:38.826Z,16.37
2019-02-17T02:06:09.450Z,11.48
2019-02-17T02:08:40.084Z,18.17
2019-02-17T02:11:10.739Z,13.15
2019-02-17T02:13:41.081Z,19.35
2019-02-17T02:16:11.719Z,11.57
2019-02-17T02:18:42.074Z,19.73
2019-02-17T02:21:12.405Z,16.20
2019-02-17T02:23:43.008Z,24.37
2019-02-17T02:26:13.607Z,13.90
2019-02-17T02:28:43.964Z,17.73
2019-02-17T02:31:14.321Z,23.67
2019-02-17T02:33:44.989Z,16.25
2019-02-17T02:36:15.595Z,17.17
2019-02-17T02:38:46.306Z,15.78
2019-02-17T02:41:16.930Z,18.20
2019-02-17T02:43:47.619Z,16.30
2019-02-17T02:46:17.971Z,16.27
2019-02-17T02:48:48.302Z,16.05
2019-02-17T02:51:18.745Z,17.70
2019-02-17T02:53:49.310Z,20.65
2019-02-17T02:56:19.907Z,15.70
2019-02-17T02:58:50.283Z,18.98
2019-02-17T03:01:20.924Z,21.37
2019-02-17T03:03:51.282Z,16.82
2019-02-17T03:06:29.082Z,18.32
2019-02-17T03:08:59.440Z,16.60
2019-02-17T03:11:30.054Z,18.92
2019-02-17T03:14:00.467Z,16.82
2019-02-17T03:16:30.793Z,22.45
2019-02-17T03:19:01.157Z,17.00
2019-02-17T03:21:31.525Z,19.27
2019-02-17T03:24:01.874Z,15.05
2019-02-17T03:26:32.222Z,17.98
2019-02-17T03:29:02.718Z,19.00
2019-02-17T03:31:39.610Z,17.12
2019-02-17T03:34:09.959Z,14.35
2019-02-17T03:36:40.307Z,15.45
2019-02-17T03:39:11.202Z,15.50
2019-02-17T03:41:41.818Z,14.85
2019-02-17T03:44:12.730Z,11.95
2019-02-17T03:46:43.160Z,16.15
2019-02-17T03:49:13.766Z,14.00
2019-02-17T03:51:44.401Z,19.10
2019-02-17T03:54:14.777Z,14.80
2019-02-17T03:56:45.131Z,12.25
2019-02-17T03:59:15.732Z,12.53
2019-02-17T04:01:46.389Z,13.45
2019-02-17T04:04:16.976Z,19.07
2019-02-17T04:06:47.589Z,13.65
2019-02-17T04:09:18.223Z,15.10
2019-02-17T04:11:48.566Z,9.85
2019-02-17T04:14:19.153Z,13.10
2019-02-17T04:16:49.849Z,10.93
2019-02-17T04:19:20.173Z,13.35
2019-02-17T04:21:50.634Z,16.20
2019-02-17T04:24:21.256Z,13.03
2019-02-17T04:26:51.871Z,16.80
2019-02-17T04:29:22.493Z,16.62
2019-02-17T04:31:52.893Z,15.00
2019-02-17T04:34:23.219Z,13.28
2019-02-17T04:36:54.109Z,13.55
2019-02-17T04:39:24.509Z,11.50
2019-02-17T04:41:55.091Z,12.53
2019-02-17T04:44:25.750Z,15.10
2019-02-17T04:46:56.119Z,14.65
2019-02-17T04:49:26.439Z,12.23
2019-02-17T04:51:57.058Z,14.35
2019-02-17T04:54:27.705Z,13.48
2019-02-17T04:56:58.121Z,14.00
2019-02-17T04:59:28.814Z,14.83
2019-02-17T05:01:59.604Z,18.45
2019-02-17T05:04:29.929Z,13.18
2019-02-17T05:07:00.514Z,12.43
2019-02-17T05:09:30.908Z,16.27
2019-02-17T05:12:01.491Z,18.15
2019-02-17T05:14:33.004Z,18.60
2019-02-17T05:17:03.416Z,19.85
2019-02-17T05:19:34.072Z,17.52
2019-02-17T05:22:04.687Z,17.95
2019-02-17T05:24:35.340Z,17.32
2019-02-17T05:27:05.673Z,13.88
2019-02-17T05:29:36.141Z,15.20
2019-02-17T05:32:06.542Z,17.55
2019-02-17T05:34:37.460Z,17.07
2019-02-17T05:37:07.910Z,19.80
2019-02-17T05:39:38.772Z,16.65
2019-02-17T05:42:09.095Z,19.27
2019-02-17T05:44:39.750Z,24.57
2019-02-17T05:47:10.448Z,20.85
2019-02-17T05:49:40.887Z,17.12
2019-02-17T05:52:11.542Z,17.85
2019-02-17T05:54:42.201Z,21.45
2019-02-17T05:57:12.823Z,20.70
2019-02-17T05:59:43.439Z,18.82
2019-02-17T06:02:14.423Z,21.23
2019-02-17T06:04:45.322Z,21.48
2019-02-17T06:07:15.928Z,21.52
2019-02-17T06:09:46.833Z,22.73
2019-02-17T06:12:18.706Z,18.67
2019-02-17T06:14:49.081Z,20.12
2019-02-17T06:17:19.455Z,26.68
2019-02-17T06:19:50.146Z,24.77
2019-02-17T06:22:20.781Z,26.02
2019-02-17T06:24:51.445Z,25.15
2019-02-17T06:27:22.344Z,27.62
2019-02-17T06:29:53.600Z,28.02
2019-02-17T06:32:24.662Z,23.92
2019-02-17T06:34:55.196Z,27.67
2019-02-17T06:37:26.168Z,30.82
2019-02-17T06:39:56.841Z,27.77
2019-02-17T06:42:27.462Z,25.60
2019-02-17T06:44:57.823Z,30.30
2019-02-17T06:47:29.952Z,28.62
2019-02-17T06:50:00.552Z,31.50
2019-02-17T06:52:31.182Z,32.33
2019-02-17T06:55:12.270Z,33.08
2019-02-17T06:57:43.306Z,36.98
2019-02-17T07:00:15.573Z,34.95
2019-02-17T07:02:46.604Z,34.58
2019-02-17T07:05:18.893Z,36.23
2019-02-17T07:07:49.222Z,33.08
2019-02-17T07:10:20.170Z,30.02
2019-02-17T07:12:50.881Z,39.53
2019-02-17T07:15:21.418Z,39.20
2019-02-17T07:17:51.879Z,34.88
2019-02-17T07:20:22.414Z,34.20
2019-02-17T07:22:52.769Z,32.53
2019-02-17T07:25:30.026Z,34.38
2019-02-17T07:27:55.208Z,26.95
2019-02-17T07:30:25.827Z,34.35
2019-02-17T07:32:56.801Z,32.17
2019-02-17T07:35:27.450Z,38.53
2019-02-17T07:37:57.890Z,39.75
2019-02-17T07:40:28.552Z,32.15
2019-02-17T07:42:58.876Z,29.30
2019-02-17T07:45:29.211Z,36.13
2019-02-17T07:47:59.962Z,30.85
2019-02-17T07:50:30.585Z,31.93
2019-02-17T07:53:01.203Z,33.08
2019-02-17T07:55:31.905Z,32.08
2019-02-17T07:58:02.260Z,28.65
2019-02-17T08:00:32.607Z,26.80
2019-02-17T08:03:03.006Z,27.10
2019-02-17T08:05:33.807Z,28.87
2019-02-17T08:08:04.165Z,30.95
2019-02-17T08:10:34.808Z,28.98
2019-02-17T08:13:05.412Z,39.08
2019-02-17T08:15:36.060Z,52.08
2019-02-17T08:18:06.500Z,75.45
2019-02-17T08:20:36.858Z,69.72
2019-02-17T08:23:08.416Z,51.15
2019-02-17T08:25:38.720Z,47.05
2019-02-17T08:28:09.047Z,37.93
2019-02-17T08:30:39.636Z,43.17
2019-02-17T08:33:10.023Z,51.50
2019-02-17T08:35:40.380Z,56.20
2019-02-17T08:38:10.976Z,39.75
2019-02-17T08:40:41.860Z,42.53
2019-02-17T08:43:12.187Z,44.03
2019-02-17T08:45:42.808Z,27.35
2019-02-17T08:48:13.511Z,33.42
2019-02-17T08:50:44.171Z,30.17
2019-02-17T08:53:14.541Z,34.83
2019-02-17T08:55:44.892Z,28.95
2019-02-17T08:58:15.242Z,27.02
2019-02-17T09:00:45.663Z,33.40
2019-02-17T09:03:16.118Z,26.50
2019-02-17T09:05:46.476Z,24.05
2019-02-17T09:08:17.070Z,23.73
2019-02-17T09:10:47.574Z,27.65
2019-02-17T09:13:18.641Z,22.75
2019-02-17T09:15:49.046Z,23.42
2019-02-17T09:18:19.720Z,23.45
2019-02-17T09:20:50.338Z,26.80
2019-02-17T09:23:20.977Z,26.23
2019-02-17T09:25:51.365Z,23.12
2019-02-17T09:28:21.689Z,20.25
2019-02-17T09:30:52.573Z,20.10
2019-02-17T09:33:22.979Z,21.17
2019-02-17T09:35:53.350Z,29.90
2019-02-17T09:38:23.963Z,21.87
2019-02-17T09:40:54.635Z,23.22
2019-02-17T09:43:25.271Z,20.95
2019-02-17T09:45:55.608Z,22.95
2019-02-17T09:48:26.018Z,31.87
2019-02-17T09:50:56.382Z,27.32
2019-02-17T09:53:26.743Z,27.30
2019-02-17T09:55:58.377Z,24.90
2019-02-17T09:58:28.969Z,26.68
2019-02-17T10:00:59.703Z,22.67
2019-02-17T10:03:30.115Z,23.30
2019-02-17T10:06:00.711Z,25.80
2019-02-17T10:08:31.342Z,27.48
2019-02-17T10:11:01.992Z,29.17
2019-02-17T10:13:32.705Z,23.00
2019-02-17T10:16:03.070Z,26.13
2019-02-17T10:18:34.056Z,26.40
2019-02-17T10:21:04.757Z,25.35
2019-02-17T10:23:35.461Z,23.87
2019-02-17T10:26:06.097Z,29.40
2019-02-17T10:28:42.366Z,26.67
2019-02-17T10:31:08.498Z,38.17
2019-02-17T10:33:38.920Z,25.03
2019-02-17T10:36:09.519Z,25.93
2019-02-17T10:38:40.263Z,23.37
2019-02-17T10:41:10.871Z,24.77
2019-02-17T10:43:41.880Z,28.03
2019-02-17T10:46:12.274Z,25.60
2019-02-17T10:48:42.894Z,23.50
2019-02-17T10:51:13.639Z,26.00
2019-02-17T10:53:44.058Z,24.27
2019-02-17T10:56:14.408Z,27.27
2019-02-17T10:58:45.505Z,27.13
2019-02-17T11:01:16.147Z,25.07
2019-02-17T11:04:02.251Z,30.67
2019-02-17T11:06:32.920Z,28.80
2019-02-17T11:09:04.916Z,25.37
2019-02-17T11:11:35.790Z,34.53
2019-02-17T11:14:06.205Z,26.70
2019-02-17T11:16:36.814Z,30.50
2019-02-17T11:19:07.189Z,29.87
2019-02-17T11:21:37.696Z,30.00
2019-02-17T11:24:08.340Z,25.10
2019-02-17T11:26:39.000Z,31.10
2019-02-17T11:29:09.507Z,30.13
2019-02-17T11:31:39.874Z,29.97
2019-02-17T11:34:10.504Z,26.53
2019-02-17T11:36:40.899Z,34.43
2019-02-17T11:39:12.889Z,26.90
2019-02-17T11:41:43.548Z,29.60
2019-02-17T11:44:14.222Z,28.73
2019-02-17T11:46:44.683Z,41.10
2019-02-17T11:49:15.343Z,26.70
2019-02-17T11:51:46.060Z,32.30
2019-02-17T11:54:16.432Z,32.33
2019-02-17T11:56:46.821Z,30.93
2019-02-17T11:59:17.163Z,35.60
2019-02-17T12:01:47.512Z,36.67
2019-02-17T12:04:18.537Z,33.07
2019-02-17T12:06:48.903Z,43.93
2019-02-17T12:09:19.251Z,46.77
2019-02-17T12:11:49.893Z,50.63
2019-02-17T12:14:20.269Z,45.23
2019-02-17T12:16:50.634Z,48.43
2019-02-17T12:19:21.142Z,54.07
2019-02-17T12:21:53.137Z,46.00
2019-02-17T12:24:25.674Z,47.43
2019-02-17T12:27:15.846Z,42.87
2019-02-17T12:29:48.114Z,43.30
2019-02-17T12:32:20.109Z,42.47
2019-02-17T12:34:50.551Z,44.50
2019-02-17T12:37:20.908Z,48.53
2019-02-17T12:39:51.553Z,38.93
2019-02-17T12:42:22.088Z,39.60
2019-02-17T12:44:53.035Z,40.40
2019-02-17T12:47:23.700Z,42.07
2019-02-17T12:49:54.637Z,44.73
2019-02-17T12:52:24.974Z,34.87
2019-02-17T12:54:55.360Z,38.90
2019-02-17T12:57:25.882Z,33.63
2019-02-17T12:59:56.234Z,33.80
2019-02-17T13:02:26.677Z,31.47
2019-02-17T13:04:57.654Z,29.10
2019-02-17T13:07:28.025Z,29.47
2019-02-17T13:09:58.646Z,33.80
2019-02-17T13:12:29.100Z,33.07
2019-02-17T13:14:59.475Z,32.77
2019-02-17T13:17:29.845Z,34.10
2019-02-17T13:20:00.558Z,35.63
2019-02-17T13:22:30.885Z,35.27
2019-02-17T13:25:01.514Z,36.33
2019-02-17T13:27:32.155Z,31.43
2019-02-17T13:30:02.799Z,30.80
2019-02-17T13:32:33.165Z,30.73
2019-02-17T13:35:03.860Z,35.97
2019-02-17T13:37:34.211Z,36.43
2019-02-17T13:40:07.638Z,36.90
2019-02-17T13:42:38.087Z,36.73
2019-02-17T13:45:12.106Z,36.50
2019-02-17T13:47:42.819Z,38.83
2019-02-17T13:50:17.290Z,35.73
2019-02-17T13:52:47.938Z,37.87
2019-02-17T13:55:18.541Z,38.93
2019-02-17T13:57:48.922Z,34.60
2019-02-17T14:00:21.267Z,34.10
2019-02-17T14:02:51.891Z,40.83
2019-02-17T14:05:22.306Z,36.97
2019-02-17T14:07:52.945Z,38.10
2019-02-17T14:10:23.850Z,35.13
2019-02-17T14:12:54.621Z,38.77
2019-02-17T14:15:24.933Z,33.33
2019-02-17T14:17:55.277Z,39.83
2019-02-17T14:20:25.695Z,37.13
2019-02-17T14:22:56.433Z,38.87
2019-02-17T14:25:27.077Z,37.40
2019-02-17T14:27:57.706Z,43.20
2019-02-17T14:30:30.313Z,40.17
2019-02-17T14:33:00.387Z,33.83
2019-02-17T14:35:31.066Z,32.50
2019-02-17T14:38:01.438Z,41.00
2019-02-17T14:40:32.073Z,32.50
2019-02-17T14:43:02.480Z,35.53
2019-02-17T14:45:33.099Z,30.80
2019-02-17T14:48:03.471Z,33.20
2019-02-17T14:50:34.297Z,34.03
2019-02-17T14:53:05.266Z,36.90
2019-02-17T14:55:35.913Z,30.90
2019-02-17T14:58:06.332Z,38.87
2019-02-17T15:00:37.049Z,36.33
2019-02-17T15:03:07.383Z,31.90
2019-02-17T15:05:37.796Z,30.10
2019-02-17T15:08:08.413Z,31.03
2019-02-17T15:10:39.046Z,28.20
2019-02-17T15:13:11.998Z,34.27
2019-02-17T15:15:41.768Z,30.70
2019-02-17T15:18:12.141Z,31.80
2019-02-17T15:20:42.835Z,35.47
2019-02-17T15:23:13.871Z,29.67
2019-02-17T15:25:44.492Z,32.90
2019-02-17T15:28:15.366Z,30.27
2019-02-17T15:30:45.736Z,27.10
2019-02-17T15:33:16.347Z,58.57
2019-02-17T15:35:47.062Z,37.93
2019-02-17T15:38:17.725Z,27.40
2019-02-17T15:40:48.371Z,26.63
2019-02-17T15:43:18.762Z,28.87
2019-02-17T15:45:49.100Z,26.10
2019-02-17T15:48:19.995Z,23.30
2019-02-17T15:50:50.490Z,24.50
2019-02-17T15:53:20.847Z,31.60
2019-02-17T15:55:51.189Z,31.20
2019-02-17T15:58:22.173Z,25.37
2019-02-17T16:00:52.810Z,25.10
2019-02-17T16:03:23.224Z,26.27
2019-02-17T16:05:54.385Z,20.80
2019-02-17T16:08:24.989Z,27.30
2019-02-17T16:10:55.341Z,21.87
2019-02-17T16:13:25.730Z,24.03
2019-02-17T16:15:56.365Z,23.20
2019-02-17T16:18:27.237Z,24.07
2019-02-17T16:20:57.901Z,27.40
2019-02-17T16:23:28.334Z,35.50
2019-02-17T16:25:58.693Z,29.70
2019-02-17T16:28:29.083Z,30.37
2019-02-17T16:30:59.705Z,50.23
2019-02-17T16:33:30.393Z,35.80
2019-02-17T16:36:01.025Z,37.90
2019-02-17T16:38:31.660Z,48.60
2019-02-17T16:41:02.002Z,42.95
2019-02-17T16:43:32.671Z,38.42
2019-02-17T16:46:03.572Z,42.70
2019-02-17T16:48:34.406Z,33.78
2019-02-17T16:51:05.367Z,34.78
2019-02-17T16:53:36.278Z,38.98
2019-02-17T16:56:07.093Z,37.40
2019-02-17T16:58:37.501Z,33.38
2019-02-17T17:01:08.133Z,28.60
2019-02-17T17:03:38.493Z,36.03
2019-02-17T17:06:09.428Z,32.58
2019-02-17T17:08:40.056Z,28.42
2019-02-17T17:11:10.564Z,34.30
2019-02-17T17:13:41.180Z,32.80
2019-02-17T17:16:11.779Z,34.40
2019-02-17T17:18:42.409Z,35.28
2019-02-17T17:21:13.072Z,35.17
2019-02-17T17:23:43.432Z,36.13
2019-02-17T17:26:13.773Z,30.90
2019-02-17T17:28:44.408Z,32.20
2019-02-17T17:31:15.144Z,32.85
2019-02-17T17:33:45.482Z,31.73
2019-02-17T17:36:16.349Z,25.45
2019-02-17T17:38:46.688Z,25.20
2019-02-17T17:41:17.054Z,21.80
2019-02-17T17:43:48.007Z,22.20
2019-02-17T17:46:18.373Z,19.90
2019-02-17T17:48:48.723Z,28.10
2019-02-17T17:51:19.404Z,37.60
2019-02-17T17:53:50.046Z,34.90
2019-02-17T17:56:20.747Z,27.77
2019-02-17T17:58:51.138Z,27.40
2019-02-17T18:01:21.516Z,25.10
2019-02-17T18:03:52.147Z,85.77
2019-02-17T18:06:22.498Z,84.62
2019-02-17T18:08:52.933Z,27.82
2019-02-17T18:11:23.634Z,32.30
2019-02-17T18:13:54.065Z,27.13
2019-02-17T18:16:24.641Z,33.95
2019-02-17T18:18:55.701Z,47.20
2019-02-17T18:21:26.396Z,47.48
2019-02-17T18:23:56.755Z,45.98
2019-02-17T18:26:27.094Z,40.17
2019-02-17T18:28:57.443Z,46.80
2019-02-17T18:31:27.848Z,54.27
2019-02-17T18:33:58.399Z,43.83
2019-02-17T18:36:28.811Z,50.98
2019-02-17T18:38:59.146Z,47.85
2019-02-17T18:41:30.014Z,52.95
2019-02-17T18:44:01.152Z,63.85
2019-02-17T18:46:31.503Z,64.15
2019-02-17T18:49:01.862Z,66.72
2019-02-17T18:51:32.577Z,62.65
2019-02-17T18:54:02.951Z,91.55
2019-02-17T18:56:33.316Z,86.95
2019-02-17T18:59:03.693Z,77.10
2019-02-17T19:01:34.022Z,70.47
2019-02-17T19:04:04.349Z,62.55
2019-02-17T19:06:34.724Z,59.95
2019-02-17T19:09:06.574Z,77.75
2019-02-17T19:11:37.188Z,87.25
2019-02-17T19:14:07.819Z,90.03
2019-02-17T19:16:38.721Z,81.55
2019-02-17T19:19:09.305Z,81.80
2019-02-17T19:21:39.703Z,70.25
2019-02-17T19:24:10.566Z,79.00
2019-02-17T19:26:40.924Z,77.65
2019-02-17T19:29:11.743Z,68.90
2019-02-17T19:31:42.392Z,61.50
2019-02-17T19:34:12.717Z,63.60
2019-02-17T19:36:43.110Z,59.45
2019-02-17T19:39:13.465Z,55.50
2019-02-17T19:41:44.079Z,53.02
2019-02-17T19:44:14.745Z,53.33
2019-02-17T19:46:45.383Z,51.60
2019-02-17T19:49:16.083Z,51.75
2019-02-17T19:51:46.647Z,44.10
2019-02-17T19:54:16.999Z,49.98
2019-02-17T19:56:47.638Z,40.90
2019-02-17T19:59:18.311Z,37.13
2019-02-17T20:01:48.681Z,35.15
2019-02-17T20:04:26.479Z,37.28
2019-02-17T20:06:57.076Z,34.55
2019-02-17T20:09:27.397Z,38.92
2019-02-17T20:11:58.132Z,38.08
2019-02-17T20:14:29.009Z,38.63
2019-02-17T20:16:59.337Z,35.15
2019-02-17T20:19:29.686Z,39.05
2019-02-17T20:22:00.298Z,32.75
2019-02-17T20:24:30.921Z,37.48
2019-02-17T20:27:01.583Z,40.83
2019-02-17T20:29:32.455Z,38.75
2019-02-17T20:32:02.812Z,35.45
2019-02-17T20:34:33.151Z,36.45
2019-02-17T20:37:03.501Z,49.83
2019-02-17T20:39:34.100Z,36.13
2019-02-17T20:42:04.485Z,34.25
2019-02-17T20:44:34.807Z,35.25
2019-02-17T20:47:05.172Z,44.65
2019-02-17T20:49:35.800Z,37.55
2019-02-17T20:52:06.451Z,40.98
2019-02-17T20:54:37.075Z,37.65
2019-02-17T20:57:07.701Z,41.60
2019-02-17T20:59:38.030Z,37.98
2019-02-17T21:02:08.459Z,36.40
2019-02-17T21:04:38.852Z,31.80
2019-02-17T21:07:09.451Z,33.10
2019-02-17T21:09:40.065Z,32.30
2019-02-17T21:12:11.130Z,39.40
2019-02-17T21:14:41.743Z,45.48
2019-02-17T21:17:12.103Z,46.18
2019-02-17T21:19:42.467Z,42.05
2019-02-17T21:22:12.817Z,35.35
2019-02-17T21:24:43.438Z,36.23
2019-02-17T21:27:14.262Z,43.10
2019-02-17T21:29:44.621Z,41.58
2019-02-17T21:32:14.962Z,34.60
2019-02-17T21:34:45.332Z,40.73
2019-02-17T21:37:15.683Z,38.85
2019-02-17T21:39:46.032Z,34.05
2019-02-17T21:42:16.965Z,44.23
2019-02-17T21:44:47.316Z,30.23
2019-02-17T21:47:18.246Z,43.38
2019-02-17T21:49:48.884Z,33.95
2019-02-17T21:52:19.232Z,39.30
2019-02-17T21:54:49.834Z,30.00
2019-02-17T21:57:20.618Z,30.75
2019-02-17T21:59:50.956Z,38.95
2019-02-17T22:02:21.576Z,34.67
2019-02-17T22:04:52.226Z,35.92
2019-02-17T22:07:22.588Z,39.05
2019-02-17T22:09:52.936Z,36.55
2019-02-17T22:12:23.666Z,28.55
2019-02-17T22:14:54.136Z,30.72
2019-02-17T22:17:24.756Z,43.33
2019-02-17T22:19:55.147Z,29.98
2019-02-17T22:22:25.496Z,35.05
2019-02-17T22:24:55.821Z,35.90
2019-02-17T22:27:26.213Z,31.27
2019-02-17T22:29:56.570Z,28.00
2019-02-17T22:32:26.898Z,33.30
2019-02-17T22:34:57.281Z,32.30
2019-02-17T22:37:27.637Z,36.68
2019-02-17T22:39:58.261Z,30.55
2019-02-17T22:42:28.903Z,31.30
2019-02-17T22:44:59.589Z,29.18
2019-02-17T22:47:30.733Z,32.03
2019-02-17T22:50:01.144Z,31.12
2019-02-17T22:52:32.135Z,36.23
2019-02-17T22:55:03.038Z,28.80
2019-02-17T22:57:33.431Z,31.05
2019-02-17T23:00:05.867Z,33.70
2019-02-17T23:02:36.853Z,31.30
2019-02-17T23:05:07.696Z,31.07
2019-02-17T23:07:38.608Z,34.35
2019-02-17T23:10:09.207Z,32.30
2019-02-17T23:12:39.872Z,31.48
2019-02-17T23:15:10.224Z,34.35
2019-02-17T23:17:40.861Z,27.95
2019-02-17T23:20:11.882Z,27.02
2019-02-17T23:22:42.481Z,32.17
2019-02-17T23:25:13.070Z,29.80
2019-02-17T23:27:43.742Z,31.12
2019-02-17T23:30:14.347Z,34.53
2019-02-17T23:32:44.957Z,36.80
2019-02-17T23:35:15.334Z,34.33
2019-02-17T23:37:45.935Z,30.55
2019-02-17T23:40:16.554Z,35.78
2019-02-17T23:42:47.046Z,30.17
2019-02-17T23:45:17.396Z,33.02
2019-02-17T23:47:48.004Z,32.33
2019-02-17T23:50:18.655Z,35.08
2019-02-17T23:52:49.578Z,40.73
2019-02-17T23:55:20.792Z,40.52
2019-02-17T23:57:51.706Z,29.77
